Time;durP1;ratioP1;P1;durP2;ratioP2;P2;SDS_P1;SDS_P2;PMS_P1;PMS_P2;Temp;Humidity;BMP_temperature;BMP_pressure;BME280_temperature;BME280_humidity;BME280_pressure;Samples;Min_cycle;Max_cycle;Signal;HPM_P1;HPM_P2
2022/02/18 00:01:06;;;;;;;15.52;3.25;;;7.40;77.60;;;;;;6228474;23;20530;-83
2022/02/18 00:03:41;;;;;;;14.48;3.65;;;7.40;77.60;;;;;;6228332;23;20206;-83
2022/02/18 00:06:08;;;;;;;14.03;3.53;;;7.40;78.20;;;;;;6224811;23;20670;-83
2022/02/18 00:08:36;;;;;;;16.75;3.50;;;7.30;78.50;;;;;;6226814;23;20182;-85
2022/02/18 00:11:02;;;;;;;17.60;3.90;;;7.30;78.80;;;;;;6228867;23;20638;-83
2022/02/18 00:13:31;;;;;;;9.90;3.10;;;7.30;78.40;;;;;;6226476;23;20201;-83
2022/02/18 00:15:58;;;;;;;15.33;3.17;;;7.30;78.90;;;;;;6228334;23;20233;-83
2022/02/18 00:18:25;;;;;;;8.77;3.10;;;7.40;78.70;;;;;;6227924;23;20189;-88
2022/02/18 00:20:52;;;;;;;16.38;3.72;;;7.40;79.10;;;;;;6226950;23;20265;-83
2022/02/18 00:23:19;;;;;;;15.20;3.20;;;7.30;79.50;;;;;;6228420;23;20198;-83
2022/02/18 00:25:46;;;;;;;13.93;3.40;;;7.40;79.10;;;;;;6227628;23;20204;-83
2022/02/18 00:28:13;;;;;;;9.50;2.97;;;7.50;78.10;;;;;;6228421;23;20217;-84
2022/02/18 00:30:41;;;;;;;11.52;3.92;;;7.50;78.80;;;;;;6227085;23;20200;-86
2022/02/18 00:33:08;;;;;;;17.27;3.23;;;7.50;79.00;;;;;;6228270;23;20673;-83
2022/02/18 00:35:35;;;;;;;11.13;3.45;;;7.40;79.60;;;;;;6226993;23;20570;-86
2022/02/18 00:38:04;;;;;;;17.30;3.13;;;7.50;78.30;;;;;;6227920;23;20226;-83
2022/02/18 00:40:31;;;;;;;13.23;3.53;;;7.60;78.60;;;;;;6228249;23;20201;-83
2022/02/18 00:42:58;;;;;;;11.32;3.10;;;7.60;78.40;;;;;;6227258;23;20190;-83
2022/02/18 00:45:28;;;;;;;13.33;3.20;;;7.50;79.30;;;;;;6228131;23;20229;-84
2022/02/18 00:47:58;;;;;;;12.33;3.10;;;7.40;80.60;;;;;;6227367;22;20197;-85
2022/02/18 00:50:26;;;;;;;13.90;3.17;;;7.40;80.70;;;;;;6228958;23;20194;-84
2022/02/18 00:52:53;;;;;;;14.25;3.20;;;7.30;81.80;;;;;;6226959;23;20281;-83
2022/02/18 00:55:21;;;;;;;15.77;3.65;;;7.40;82.00;;;;;;6226928;23;20213;-83
2022/02/18 00:57:48;;;;;;;18.83;3.20;;;7.40;81.80;;;;;;6227792;23;20205;-85
2022/02/18 01:00:20;;;;;;;11.18;3.38;;;7.50;80.90;;;;;;6228608;23;20205;-83
2022/02/18 01:02:47;;;;;;;12.10;2.95;;;7.40;82.00;;;;;;6228629;23;20197;-83
2022/02/18 01:05:15;;;;;;;16.27;3.13;;;7.50;82.00;;;;;;6228860;23;20709;-83
2022/02/18 01:07:42;;;;;;;17.00;3.87;;;7.60;81.60;;;;;;6227325;23;20269;-83
2022/02/18 01:10:11;;;;;;;13.40;3.05;;;7.50;82.00;;;;;;6229275;23;20208;-83
2022/02/18 01:12:38;;;;;;;10.48;2.97;;;7.40;83.10;;;;;;6226859;23;20205;-86
2022/02/18 01:15:06;;;;;;;16.57;3.57;;;7.40;84.00;;;;;;6227390;23;20281;-83
2022/02/18 01:17:40;;;;;;;11.68;2.90;;;7.30;83.90;;;;;;6226444;23;20741;-83
2022/02/18 01:20:09;;;;;;;10.68;2.90;;;7.20;84.80;;;;;;6225850;23;20626;-85
2022/02/18 01:22:37;;;;;;;12.23;3.30;;;7.30;85.30;;;;;;6226409;22;20535;-83
2022/02/18 01:25:05;;;;;;;12.50;3.10;;;7.30;85.40;;;;;;6227034;23;20229;-84
2022/02/18 01:27:32;;;;;;;12.18;3.35;;;7.30;85.00;;;;;;6225941;23;20238;-83
2022/02/18 01:29:59;;;;;;;13.37;3.40;;;7.40;84.60;;;;;;6226766;23;20257;-83
2022/02/18 01:32:26;;;;;;;10.70;3.33;;;7.40;84.80;;;;;;6225620;23;20211;-85
2022/02/18 01:34:53;;;;;;;11.23;3.00;;;7.40;84.80;;;;;;6225976;23;20206;-84
2022/02/18 01:37:20;;;;;;;13.68;3.95;;;7.30;85.40;;;;;;6224546;23;20233;-83
2022/02/18 01:39:48;;;;;;;9.43;3.00;;;7.30;85.10;;;;;;6225766;23;20177;-85
2022/02/18 01:42:15;;;;;;;14.60;3.55;;;7.40;85.00;;;;;;6224596;23;20225;-84
2022/02/18 01:44:43;;;;;;;19.90;3.50;;;7.40;84.60;;;;;;6225356;23;20201;-83
2022/02/18 01:47:13;;;;;;;14.40;3.22;;;7.30;85.20;;;;;;6223847;23;20574;-83
2022/02/18 01:49:40;;;;;;;14.83;3.30;;;7.40;84.20;;;;;;6226796;23;20243;-84
2022/02/18 01:52:08;;;;;;;10.70;2.93;;;7.50;84.00;;;;;;6225036;23;20205;-85
2022/02/18 01:54:35;;;;;;;13.20;2.90;;;7.50;84.10;;;;;;6225784;23;20196;-83
2022/02/18 01:57:05;;;;;;;13.37;3.20;;;7.60;83.80;;;;;;6226390;23;20258;-83
2022/02/18 01:59:32;;;;;;;11.15;2.83;;;7.60;83.70;;;;;;6226817;23;20269;-83
2022/02/18 02:01:59;;;;;;;15.33;3.50;;;7.50;84.10;;;;;;6226430;23;20281;-84
2022/02/18 02:04:26;;;;;;;13.60;3.42;;;7.50;84.70;;;;;;6226594;23;20253;-83
2022/02/18 02:06:57;;;;;;;17.63;3.70;;;7.50;84.30;;;;;;6225863;23;20838;-83
2022/02/18 02:09:25;;;;;;;13.32;3.05;;;7.60;84.20;;;;;;6226434;23;20166;-85
2022/02/18 02:11:52;;;;;;;12.07;3.10;;;7.60;84.10;;;;;;6226775;23;20298;-83
2022/02/18 02:14:20;;;;;;;11.02;2.90;;;7.50;84.80;;;;;;6226026;23;20238;-84
2022/02/18 02:16:47;;;;;;;14.37;3.33;;;7.50;85.30;;;;;;6225031;23;20225;-83
2022/02/18 02:19:14;;;;;;;13.57;3.28;;;7.60;84.80;;;;;;6224391;23;20557;-83
2022/02/18 02:21:49;;;;;;;14.05;3.20;;;7.60;84.70;;;;;;6225242;23;20253;-83
2022/02/18 02:24:18;;;;;;;16.33;3.17;;;7.60;85.20;;;;;;6226814;23;20217;-83
2022/02/18 02:26:45;;;;;;;14.43;3.45;;;7.60;84.80;;;;;;6226288;23;20256;-83
2022/02/18 02:29:12;;;;;;;15.67;3.07;;;7.70;84.50;;;;;;6227407;23;20208;-83
2022/02/18 02:31:40;;;;;;;12.23;3.00;;;7.60;84.80;;;;;;6224830;22;20273;-84
2022/02/18 02:34:07;;;;;;;15.20;3.50;;;7.50;84.70;;;;;;6227792;23;20252;-83
2022/02/18 02:36:35;;;;;;;17.80;3.75;;;7.60;85.10;;;;;;6227144;22;20725;-83
2022/02/18 02:39:10;;;;;;;13.90;3.20;;;7.60;85.00;;;;;;6227368;23;20621;-83
2022/02/18 02:41:38;;;;;;;15.27;3.20;;;7.80;83.90;;;;;;6225805;23;20251;-83
2022/02/18 02:44:06;;;;;;;10.43;2.80;;;7.80;84.30;;;;;;6227082;23;20209;-83
2022/02/18 02:46:34;;;;;;;14.40;3.40;;;7.80;83.70;;;;;;6225768;23;20217;-83
2022/02/18 02:49:01;;;;;;;13.47;3.03;;;7.90;83.70;;;;;;6227359;23;20197;-83
2022/02/18 02:51:28;;;;;;;12.60;2.78;;;7.90;83.60;;;;;;6226624;23;20198;-83
2022/02/18 02:53:55;;;;;;;11.18;2.92;;;7.90;83.20;;;;;;6227554;23;20185;-83
2022/02/18 02:56:22;;;;;;;14.35;3.58;;;8.00;83.70;;;;;;6226983;23;20261;-83
2022/02/18 02:58:50;;;;;;;14.38;3.13;;;7.90;83.80;;;;;;6228031;23;20249;-83
2022/02/18 03:01:17;;;;;;;16.23;3.90;;;8.00;83.30;;;;;;6225653;23;20213;-83
2022/02/18 03:03:44;;;;;;;13.65;3.08;;;8.00;84.40;;;;;;6226980;23;20202;-85
2022/02/18 03:06:11;;;;;;;11.85;3.08;;;7.90;83.00;;;;;;6227023;23;20254;-84
2022/02/18 03:08:38;;;;;;;11.18;2.95;;;8.00;83.60;;;;;;6227760;23;20229;-83
2022/02/18 03:11:16;;;;;;;14.75;3.20;;;8.00;83.20;;;;;;6227570;23;20197;-83
2022/02/18 03:13:54;;;;;;;9.70;2.70;;;8.00;82.40;;;;;;6227525;23;20169;-83
2022/02/18 03:16:22;;;;;;;9.15;3.15;;;8.10;81.70;;;;;;6226991;23;20205;-85
2022/02/18 03:18:49;;;;;;;14.98;3.17;;;8.10;81.40;;;;;;6227442;23;20174;-85
2022/02/18 03:21:17;;;;;;;12.30;3.15;;;8.10;81.70;;;;;;6227062;23;20221;-83
2022/02/18 03:23:46;;;;;;;14.80;3.00;;;8.00;82.00;;;;;;6228215;23;20174;-83
2022/02/18 03:26:13;;;;;;;14.45;3.15;;;8.10;81.60;;;;;;6227335;23;20225;-83
2022/02/18 03:28:40;;;;;;;11.30;3.13;;;8.10;82.00;;;;;;6226670;23;20181;-84
2022/02/18 03:31:09;;;;;;;11.77;3.17;;;8.20;82.10;;;;;;6227448;23;20206;-82
2022/02/18 03:33:49;;;;;;;16.25;3.55;;;8.20;82.50;;;;;;6227542;23;20236;-84
2022/02/18 03:36:16;;;;;;;14.88;3.45;;;8.10;83.50;;;;;;6227748;23;20276;-83
2022/02/18 03:39:05;;;;;;;16.05;3.60;;;8.10;84.10;;;;;;6227226;23;20181;-83
2022/02/18 03:41:32;;;;;;;11.52;3.38;;;8.20;84.10;;;;;;6227329;23;20248;-85
2022/02/18 03:43:59;;;;;;;15.60;3.40;;;8.10;84.10;;;;;;6228136;23;20174;-83
2022/02/18 03:46:27;;;;;;;14.52;3.70;;;8.10;84.70;;;;;;6226979;22;20285;-84
2022/02/18 03:48:54;;;;;;;13.68;3.15;;;8.10;85.90;;;;;;6227338;23;20281;-84
2022/02/18 03:51:22;;;;;;;15.65;3.45;;;8.00;85.50;;;;;;6226847;23;20217;-83
2022/02/18 03:53:49;;;;;;;15.40;3.42;;;8.00;86.40;;;;;;6227337;23;20181;-84
2022/02/18 03:56:25;;;;;;;16.02;3.42;;;8.10;85.70;;;;;;6229329;23;20208;-83
2022/02/18 03:58:55;;;;;;;15.50;3.80;;;8.00;86.50;;;;;;6230221;23;20162;-85
2022/02/18 04:01:22;;;;;;;12.82;3.50;;;8.10;86.50;;;;;;6229195;23;20198;-83
2022/02/18 04:03:51;;;;;;;13.20;3.10;;;8.10;86.10;;;;;;6229656;23;20262;-83
2022/02/18 04:06:18;;;;;;;10.80;3.10;;;8.10;86.70;;;;;;6228686;23;20202;-83
2022/02/18 04:08:45;;;;;;;11.98;3.33;;;8.10;86.30;;;;;;6229520;23;20170;-83
2022/02/18 04:11:15;;;;;;;12.43;3.13;;;8.20;86.10;;;;;;6229076;22;20202;-82
2022/02/18 04:13:42;;;;;;;12.38;3.10;;;8.20;85.60;;;;;;6229631;23;20177;-83
2022/02/18 04:16:09;;;;;;;16.15;3.42;;;8.20;86.00;;;;;;6229821;22;20206;-83
2022/02/18 04:18:35;;;;;;;13.02;3.13;;;8.10;86.50;;;;;;6233187;23;20209;-83
2022/02/18 04:21:04;;;;;;;12.82;3.28;;;8.10;86.20;;;;;;6232499;23;20198;-85
2022/02/18 04:23:31;;;;;;;11.00;3.05;;;8.10;86.30;;;;;;6231370;23;20314;-84
2022/02/18 04:25:58;;;;;;;14.65;3.47;;;8.00;86.30;;;;;;6228583;23;20259;-83
2022/02/18 04:28:25;;;;;;;21.38;3.58;;;8.10;86.00;;;;;;6229005;23;20253;-83
2022/02/18 04:30:58;;;;;;;14.38;3.40;;;7.90;86.30;;;;;;6228861;23;20202;-84
2022/02/18 04:33:24;;;;;;;10.85;3.20;;;7.90;86.60;;;;;;6229275;23;20507;-83
2022/02/18 04:35:51;;;;;;;11.27;3.30;;;7.80;87.00;;;;;;6229232;23;20281;-83
2022/02/18 04:38:20;;;;;;;12.93;3.28;;;7.70;87.70;;;;;;6229275;23;20208;-85
2022/02/18 04:40:47;;;;;;;13.40;3.50;;;7.90;86.80;;;;;;6228024;23;20185;-85
2022/02/18 04:43:13;;;;;;;13.95;3.20;;;7.90;86.30;;;;;;6228956;23;20249;-85
2022/02/18 04:46:04;;;;;;;13.23;3.05;;;8.00;85.90;;;;;;6228822;23;20210;-83
2022/02/18 04:48:32;;;;;;;13.75;3.05;;;7.90;86.00;;;;;;6228968;23;20198;-83
2022/02/18 04:50:59;;;;;;;12.15;3.20;;;7.90;86.50;;;;;;6228590;22;20272;-84
2022/02/18 04:53:27;;;;;;;11.20;3.22;;;7.90;86.40;;;;;;6229132;23;20245;-83
2022/02/18 04:55:54;;;;;;;16.10;3.35;;;7.90;87.00;;;;;;6226967;23;20210;-82
2022/02/18 04:58:23;;;;;;;11.25;3.08;;;8.00;86.10;;;;;;6226582;23;20205;-83
2022/02/18 05:01:09;;;;;;;13.70;3.42;;;8.10;84.50;;;;;;6228775;22;20173;-83
2022/02/18 05:03:36;;;;;;;10.60;3.17;;;8.10;85.10;;;;;;6229323;23;20158;-86
2022/02/18 05:06:04;;;;;;;10.68;2.95;;;8.10;84.90;;;;;;6227627;22;20250;-83
2022/02/18 05:08:33;;;;;;;16.20;2.72;;;8.10;85.00;;;;;;6229079;23;20234;-83
2022/02/18 05:11:00;;;;;;;17.13;4.18;;;8.20;84.40;;;;;;6227694;23;20204;-83
2022/02/18 05:13:27;;;;;;;14.18;3.15;;;8.10;85.00;;;;;;6228810;23;20178;-82
2022/02/18 05:15:54;;;;;;;15.40;3.25;;;8.00;86.20;;;;;;6226968;22;20292;-82
2022/02/18 05:18:21;;;;;;;12.55;3.03;;;7.90;85.70;;;;;;6228258;23;20162;-83
2022/02/18 05:20:58;;;;;;;15.80;3.22;;;7.90;86.30;;;;;;6228551;23;20310;-82
2022/02/18 05:23:25;;;;;;;14.13;3.40;;;8.00;85.90;;;;;;6228928;23;20214;-83
2022/02/18 05:25:53;;;;;;;13.80;3.17;;;8.00;85.50;;;;;;6228922;23;20204;-83
2022/02/18 05:28:26;;;;;;;17.35;3.10;;;7.90;86.30;;;;;;6228591;23;20227;-83
2022/02/18 05:30:53;;;;;;;14.68;3.67;;;7.90;86.80;;;;;;6229037;23;20477;-83
2022/02/18 05:33:20;;;;;;;10.40;2.80;;;7.90;86.00;;;;;;6228709;23;20649;-83
2022/02/18 05:35:47;;;;;;;13.02;3.17;;;7.80;87.10;;;;;;6227806;23;20228;-83
2022/02/18 05:38:14;;;;;;;11.20;3.05;;;7.70;87.50;;;;;;6228567;23;20181;-85
2022/02/18 05:40:41;;;;;;;15.48;3.30;;;7.70;87.80;;;;;;6227720;23;20197;-83
2022/02/18 05:43:11;;;;;;;13.35;3.25;;;7.70;88.60;;;;;;6229647;23;20206;-83
2022/02/18 05:45:38;;;;;;;16.65;3.38;;;7.60;89.30;;;;;;6227949;23;20273;-82
2022/02/18 05:48:05;;;;;;;14.90;3.50;;;7.70;89.30;;;;;;6228402;23;20249;-82
2022/02/18 05:50:32;;;;;;;12.50;3.22;;;7.80;88.60;;;;;;6200134;23;20191;-83
2022/02/18 05:52:59;;;;;;;14.07;3.30;;;7.80;88.30;;;;;;6199122;23;20230;-83
2022/02/18 05:55:26;;;;;;;13.90;3.50;;;7.80;88.10;;;;;;6199224;23;20178;-83
2022/02/18 05:58:21;;;;;;;16.20;3.30;;;7.80;88.30;;;;;;6200321;23;20209;-84
2022/02/18 06:00:48;;;;;;;12.48;3.33;;;7.70;88.90;;;;;;6229443;23;20170;-83
2022/02/18 06:03:32;;;;;;;14.63;3.47;;;7.70;89.70;;;;;;6230883;23;20161;-83
2022/02/18 06:05:59;;;;;;;12.20;3.17;;;7.60;90.20;;;;;;6229905;23;20217;-83
2022/02/18 06:11:57;;;;;;;14.57;3.20;;;7.60;90.20;;;;;;6229865;23;20249;-83
2022/02/18 06:17:47;;;;;;;14.73;3.58;;;7.80;90.10;;;;;;6229516;23;20220;-83
2022/02/18 06:20:15;;;;;;;14.00;3.22;;;7.80;89.70;;;;;;6231024;23;20177;-82
2022/02/18 06:22:42;;;;;;;15.75;3.28;;;7.90;90.10;;;;;;6230796;23;20228;-84
2022/02/18 06:25:12;;;;;;;11.27;3.15;;;7.90;90.20;;;;;;6231494;23;20197;-83
2022/02/18 06:34:43;;;;;;;12.25;3.47;;;8.00;89.50;;;;;;6138941;23;20167;-83
2022/02/18 06:37:50;;;;;;;15.57;2.90;;;8.10;88.80;;;;;;6168779;23;20249;-84
2022/02/18 06:40:29;;;;;;;13.65;3.25;;;8.20;89.30;;;;;;6221169;23;20228;-83
2022/02/18 06:42:58;;;;;;;13.52;3.38;;;8.30;88.50;;;;;;6214830;23;20213;-84
2022/02/18 06:45:30;;;;;;;10.50;3.38;;;8.30;88.40;;;;;;6230546;23;20626;-83
2022/02/18 06:48:01;;;;;;;18.40;3.97;;;8.30;87.70;;;;;;6228262;23;20206;-85
2022/02/18 06:50:39;;;;;;;13.02;3.17;;;8.30;87.40;;;;;;6200974;23;20186;-88
2022/02/18 06:53:07;;;;;;;14.20;3.25;;;8.20;87.60;;;;;;6200531;23;20178;-86
2022/02/18 06:55:35;;;;;;;14.38;3.50;;;8.30;87.70;;;;;;6201139;23;20178;-83
2022/02/18 06:58:04;;;;;;;15.65;3.58;;;8.20;87.20;;;;;;6201621;23;20183;-85
2022/02/18 07:00:31;;;;;;;14.73;3.53;;;8.30;87.70;;;;;;6201542;23;20214;-86
2022/02/18 07:03:02;;;;;;;13.07;3.10;;;8.30;87.90;;;;;;6173534;23;20459;-84
2022/02/18 07:05:35;;;;;;;13.65;3.45;;;8.30;89.10;;;;;;6201346;23;20173;-84
2022/02/18 07:08:10;;;;;;;16.60;3.47;;;8.30;89.40;;;;;;6201400;23;20174;-84
2022/02/18 07:10:44;;;;;;;15.45;3.33;;;8.30;89.30;;;;;;6201152;23;20162;-85
2022/02/18 07:13:12;;;;;;;11.50;3.22;;;8.40;89.10;;;;;;6174612;23;20257;-84
2022/02/18 07:15:40;;;;;;;10.43;2.60;;;8.50;88.50;;;;;;6201318;23;20175;-85
2022/02/18 07:18:16;;;;;;;15.00;4.55;;;8.70;85.70;;;;;;6202222;23;20265;-85
2022/02/18 07:20:56;;;;;;;16.77;3.42;;;8.80;85.00;;;;;;6200317;23;20191;-83
2022/02/18 07:23:24;;;;;;;11.30;3.42;;;8.80;85.20;;;;;;6198968;23;20163;-83
2022/02/18 07:25:53;;;;;;;9.15;3.15;;;8.80;84.90;;;;;;6200085;23;20603;-82
2022/02/18 07:28:20;;;;;;;11.38;3.45;;;8.70;85.60;;;;;;6202009;23;20198;-84
2022/02/18 07:30:47;;;;;;;12.93;3.58;;;8.70;86.00;;;;;;6203065;23;20179;-82
2022/02/18 07:33:14;;;;;;;18.58;3.72;;;8.60;86.30;;;;;;6202282;23;20182;-83
2022/02/18 07:36:00;;;;;;;12.73;3.10;;;8.60;86.70;;;;;;6187300;23;20201;-83
2022/02/18 07:38:30;;;;;;;13.77;3.60;;;8.70;85.50;;;;;;6199415;23;20467;-82
2022/02/18 07:44:32;;;;;;;11.38;3.00;;;9.10;84.50;;;;;;6204283;23;20142;-86
2022/02/18 07:47:22;;;;;;;14.10;3.25;;;9.20;80.00;;;;;;6202678;23;20205;-83
2022/02/18 07:49:50;;;;;;;11.57;3.20;;;9.40;79.30;;;;;;6203321;23;20527;-82
2022/02/18 07:52:20;;;;;;;12.68;3.20;;;9.50;77.90;;;;;;6202343;23;20210;-83
2022/02/18 07:57:28;;;;;;;11.88;3.10;;;9.50;78.80;;;;;;6174033;23;20206;-85
2022/02/18 07:59:55;;;;;;;12.38;2.90;;;9.50;78.00;;;;;;6204089;23;20604;-83
2022/02/18 08:02:22;;;;;;;11.02;3.28;;;9.50;76.30;;;;;;6202189;23;20210;-83
2022/02/18 08:04:49;;;;;;;12.35;3.38;;;9.50;76.80;;;;;;6203552;23;20469;-82
2022/02/18 08:07:17;;;;;;;9.65;3.00;;;9.50;76.10;;;;;;6176898;23;20233;-84
2022/02/18 08:09:45;;;;;;;10.48;3.05;;;9.50;76.00;;;;;;6204070;23;20175;-82
2022/02/18 08:12:12;;;;;;;11.75;2.83;;;9.60;74.50;;;;;;6203348;23;20226;-83
2022/02/18 08:14:39;;;;;;;8.85;2.60;;;9.70;74.60;;;;;;6177597;23;20175;-83
2022/02/18 08:17:06;;;;;;;14.90;3.22;;;9.70;74.60;;;;;;6202110;23;20207;-82
2022/02/18 08:19:33;;;;;;;13.48;3.10;;;9.70;74.60;;;;;;6204213;23;20175;-84
2022/02/18 08:22:03;;;;;;;10.98;2.95;;;9.60;74.50;;;;;;6203117;23;20213;-83
2022/02/18 08:24:32;;;;;;;10.90;3.22;;;9.60;74.50;;;;;;6203157;23;20619;-84
2022/02/18 08:27:02;;;;;;;9.30;2.95;;;9.60;74.50;;;;;;6202471;23;20242;-83
2022/02/18 08:29:29;;;;;;;12.07;3.00;;;9.60;74.60;;;;;;6203040;23;20174;-82
2022/02/18 08:31:56;;;;;;;10.13;2.80;;;9.70;74.70;;;;;;6203111;23;20515;-87
2022/02/18 08:34:23;;;;;;;9.77;3.00;;;9.70;74.60;;;;;;6177057;23;20237;-84
2022/02/18 08:37:21;;;;;;;8.20;3.25;;;9.80;74.70;;;;;;6198931;23;20241;-82
2022/02/18 08:39:50;;;;;;;11.82;3.20;;;10.10;73.10;;;;;;6203887;23;20175;-83
2022/02/18 08:42:28;;;;;;;;;;;;;;;;;;;;;
2022/02/18 08:44:55;;;;;;;11.00;2.92;;;9.90;74.90;;;;;;6176020;23;20202;-84
2022/02/18 08:47:22;;;;;;;12.40;3.08;;;9.70;77.00;;;;;;6201349;23;20205;-83
2022/02/18 08:50:09;;;;;;;8.40;2.75;;;9.60;78.70;;;;;;6201786;23;20666;-82
2022/02/18 08:52:38;;;;;;;9.75;2.85;;;9.40;81.20;;;;;;6201889;23;20273;-82
2022/02/18 08:55:09;;;;;;;11.05;2.78;;;9.40;83.10;;;;;;6201000;23;20611;-84
2022/02/18 08:57:36;;;;;;;10.35;2.85;;;9.30;83.20;;;;;;6201754;23;20221;-82
2022/02/18 09:00:18;;;;;;;9.60;3.10;;;9.30;83.60;;;;;;6201737;23;20186;-83
2022/02/18 09:02:46;;;;;;;10.63;3.42;;;9.40;84.80;;;;;;6200830;23;20204;-86
2022/02/18 09:05:13;;;;;;;10.85;2.92;;;9.30;84.70;;;;;;6201962;23;20290;-83
2022/02/18 09:07:41;;;;;;;9.00;2.88;;;9.30;86.30;;;;;;6201339;23;20202;-83
2022/02/18 09:10:11;;;;;;;8.90;2.63;;;9.30;85.60;;;;;;6203189;23;20249;-83
2022/02/18 09:13:01;;;;;;;12.60;3.42;;;9.40;86.10;;;;;;6183989;23;20206;-82
2022/02/18 09:15:27;;;;;;;11.52;2.95;;;9.50;85.90;;;;;;6202074;23;20167;-85
2022/02/18 09:18:04;;;;;;;12.90;3.15;;;9.50;86.10;;;;;;6200984;23;20229;-84
2022/02/18 09:20:38;;;;;;;9.95;2.80;;;9.60;85.80;;;;;;6201692;23;20166;-82
2022/02/18 09:23:53;;;;;;;7.45;2.58;;;9.80;84.30;;;;;;6201299;23;20558;-83
2022/02/18 09:26:26;;;;;;;7.63;2.33;;;10.00;82.20;;;;;;6200180;23;20209;-82
2022/02/18 09:29:30;;;;;;;8.48;2.80;;;10.10;79.20;;;;;;6178583;23;20178;-83
2022/02/18 09:32:04;;;;;;;11.63;2.72;;;10.20;78.50;;;;;;6204684;23;20202;-86
2022/02/18 09:34:32;;;;;;;8.02;2.70;;;10.20;77.50;;;;;;6201856;23;20163;-85
2022/02/18 09:36:59;;;;;;;8.45;2.60;;;10.40;77.40;;;;;;6202747;23;20199;-82
2022/02/18 09:39:30;;;;;;;14.65;2.95;;;10.40;73.50;;;;;;6203026;23;20178;-84
2022/02/18 09:42:31;;;;;;;8.13;2.67;;;10.50;73.60;;;;;;6201637;23;20202;-82
2022/02/18 09:44:59;;;;;;;9.77;2.60;;;10.40;73.50;;;;;;6203539;23;20213;-82
2022/02/18 09:47:26;;;;;;;7.45;2.00;;;10.70;73.80;;;;;;6201957;23;20206;-82
2022/02/18 09:49:54;;;;;;;10.38;2.78;;;10.90;69.40;;;;;;6203596;23;20195;-87
2022/02/18 09:52:51;;;;;;;8.20;2.45;;;10.80;66.20;;;;;;6201854;23;20202;-84
2022/02/18 09:55:21;;;;;;;8.55;2.40;;;10.90;65.30;;;;;;6203585;23;20266;-85
2022/02/18 09:57:58;;;;;;;6.55;2.35;;;10.90;64.60;;;;;;6202792;23;20206;-84
2022/02/18 10:00:30;;;;;;;5.03;2.22;;;11.00;67.30;;;;;;6203177;23;20190;-82
2022/02/18 10:02:57;;;;;;;6.70;2.03;;;11.20;65.50;;;;;;6202700;23;20206;-84
2022/02/18 10:05:26;;;;;;;5.80;2.90;;;11.30;67.30;;;;;;6203963;23;20181;-82
2022/02/18 10:27:54;;;;;;;6.93;2.42;;;11.90;59.40;;;;;;6060356;23;20215;-85
2022/02/18 12:27:37;;;;;;;6.25;2.55;;;12.20;48.80;;;;;;6213896;23;20197;-85
2022/02/18 12:30:36;;;;;;;7.75;2.60;;;12.10;48.70;;;;;;6256937;23;20168;-85
2022/02/18 12:33:40;;;;;;;9.30;2.25;;;12.20;51.00;;;;;;6234578;23;20212;-85
2022/02/18 12:36:16;;;;;;;5.85;2.38;;;12.00;50.80;;;;;;6259021;22;20179;-85
2022/02/18 12:42:42;;;;;;;7.43;2.15;;;12.20;51.00;;;;;;6256952;22;20164;-85
2022/02/18 12:45:38;;;;;;;8.50;2.53;;;12.40;51.20;;;;;;6256551;23;20165;-84
2022/02/18 12:48:05;;;;;;;4.32;2.13;;;12.50;50.70;;;;;;6251272;23;20731;-85
2022/02/18 12:50:34;;;;;;;5.93;2.40;;;12.40;49.00;;;;;;6226154;23;20184;-85
2022/02/18 12:53:00;;;;;;;5.70;2.17;;;12.50;49.00;;;;;;6224783;23;20225;-84
2022/02/18 13:02:40;;;;;;;7.70;3.80;;;12.50;49.00;;;;;;5996065;24;20209;-85
2022/02/18 13:05:15;;;;;;;8.90;4.03;;;12.40;49.00;;;;;;6057091;23;20285;-84
2022/02/18 13:14:24;;;;;;;8.73;3.92;;;12.50;49.00;;;;;;6120313;23;20187;-85
2022/02/18 13:23:46;;;;;;;10.57;4.18;;;12.40;49.00;;;;;;6138148;23;20202;-87
2022/02/18 13:26:14;;;;;;;12.57;4.50;;;12.10;49.60;;;;;;6138007;23;20248;-85
2022/02/18 14:03:21;;;;;;;11.68;5.40;;;13.70;47.30;;;;;;6174428;23;20158;-83
2022/02/18 14:27:02;;;;;;;;;;;;;;;;;;;;;
2022/02/18 16:29:55;;;;;;;7.20;1.52;;;14.60;27.50;;;;;;5913367;24;20185;-85
2022/02/18 17:28:33;;;;;;;5.20;2.05;;;14.60;27.50;;;;;;5908859;23;20240;-83
2022/02/18 17:34:07;;;;;;;6.75;1.80;;;14.60;27.50;;;;;;6175186;23;20226;-83
2022/02/18 17:37:14;;;;;;;6.93;1.90;;;14.70;27.60;;;;;;6183653;23;20210;-84
2022/02/18 17:47:07;;;;;;;7.03;1.95;;;14.60;27.50;;;;;;6149921;23;20255;-83
2022/02/18 17:50:01;;;;;;;4.75;2.00;;;14.70;27.60;;;;;;6204782;23;20666;-83
2022/02/18 17:58:52;;;;;;;;;;;;;;;;;;;;;
2022/02/18 18:01:31;;;;;;;5.28;1.95;;;14.60;27.50;;;;;;6143698;23;20209;-84
2022/02/18 18:04:05;;;;;;;4.72;2.15;;;14.60;27.50;;;;;;6169752;23;20174;-85
2022/02/18 18:06:36;;;;;;;6.45;1.90;;;14.50;28.70;;;;;;6169488;23;20215;-84
2022/02/18 18:09:07;;;;;;;4.25;2.10;;;14.50;28.80;;;;;;6199046;23;20210;-84
2022/02/18 18:11:48;;;;;;;6.97;1.95;;;14.50;29.60;;;;;;6202492;23;20205;-84
2022/02/18 18:14:22;;;;;;;4.45;1.98;;;14.60;29.00;;;;;;6203203;23;20167;-83
2022/02/18 18:26:53;;;;;;;3.58;1.80;;;14.50;31.60;;;;;;6142375;23;20187;-88
2022/02/18 18:29:35;;;;;;;6.63;2.10;;;14.50;33.00;;;;;;6083326;23;20187;-84
2022/02/18 18:32:10;;;;;;;6.28;2.08;;;14.50;31.90;;;;;;6139993;23;20207;-84
2022/02/18 18:35:12;;;;;;;5.93;2.10;;;14.60;32.00;;;;;;6141599;23;20207;-85
2022/02/18 18:37:43;;;;;;;5.95;2.00;;;14.50;33.60;;;;;;6103562;23;20263;-85
2022/02/18 18:40:13;;;;;;;7.38;2.17;;;14.50;34.30;;;;;;6156449;23;20182;-89
2022/02/18 18:43:03;;;;;;;5.60;1.88;;;14.40;35.10;;;;;;6196327;23;20210;-84
2022/02/18 18:49:05;;;;;;;3.50;1.83;;;14.40;35.80;;;;;;6201435;23;20249;-86
2022/02/18 18:55:01;;;;;;;3.70;1.70;;;14.30;38.00;;;;;;6140337;23;20172;-84
2022/02/18 18:57:40;;;;;;;7.97;1.92;;;14.20;38.60;;;;;;6139310;23;20186;-88
2022/02/18 19:00:09;;;;;;;4.25;1.60;;;14.20;39.60;;;;;;6141073;23;20324;-83
2022/02/18 19:02:45;;;;;;;6.10;2.00;;;14.10;40.20;;;;;;6141603;23;20640;-85
2022/02/18 19:05:26;;;;;;;4.78;1.48;;;14.10;40.50;;;;;;6201161;23;20208;-85
2022/02/18 19:08:35;;;;;;;9.10;2.33;;;14.00;41.70;;;;;;6200121;23;20225;-85
2022/02/18 19:11:43;;;;;;;4.18;2.30;;;13.90;42.10;;;;;;6199131;23;20186;-88
2022/02/18 19:14:50;;;;;;;3.65;1.90;;;13.80;42.70;;;;;;6175183;23;20179;-85
2022/02/18 19:17:18;;;;;;;5.30;2.00;;;13.70;43.80;;;;;;6200689;23;20590;-85
2022/02/18 19:20:00;;;;;;;6.80;2.35;;;13.80;43.40;;;;;;6175104;23;20198;-84
2022/02/18 19:23:25;;;;;;;3.25;1.75;;;13.70;44.20;;;;;;6186773;23;20206;-87
2022/02/18 19:26:10;;;;;;;3.00;1.83;;;13.70;44.90;;;;;;6123636;23;20179;-88
2022/02/18 19:29:04;;;;;;;6.47;1.85;;;13.60;46.60;;;;;;6198038;23;20174;-85
2022/02/18 19:31:42;;;;;;;4.35;1.60;;;13.40;48.10;;;;;;6203075;23;20206;-88
2022/02/18 19:34:10;;;;;;;6.28;1.95;;;13.30;49.80;;;;;;6206117;23;20170;-84
2022/02/18 19:36:46;;;;;;;5.15;1.80;;;13.40;49.80;;;;;;6163648;23;20318;-86
2022/02/18 19:39:23;;;;;;;2.53;1.63;;;13.50;48.50;;;;;;6205426;23;20194;-85
2022/02/18 19:41:54;;;;;;;8.48;1.88;;;13.50;49.00;;;;;;6191070;23;20214;-85
2022/02/18 19:47:22;;;;;;;3.65;1.88;;;13.40;49.90;;;;;;6203496;23;20207;-84
2022/02/18 19:50:09;;;;;;;4.55;1.77;;;13.40;50.00;;;;;;6204992;23;20273;-83
2022/02/18 19:52:41;;;;;;;4.65;1.90;;;13.40;49.90;;;;;;6149873;23;20206;-83
2022/02/18 19:55:25;;;;;;;5.63;1.63;;;13.60;50.00;;;;;;6205191;23;20178;-84
2022/02/18 19:58:45;;;;;;;5.78;2.05;;;13.60;50.10;;;;;;6203772;23;20206;-84
2022/02/18 20:01:37;;;;;;;4.80;1.70;;;13.60;50.10;;;;;;6194879;23;20202;-83
2022/02/18 20:07:05;;;;;;;8.77;2.00;;;13.60;50.00;;;;;;6109794;23;20208;-84
2022/02/18 20:09:56;;;;;;;5.30;1.83;;;13.50;50.00;;;;;;6199371;23;20178;-83
2022/02/18 20:12:58;;;;;;;5.65;1.98;;;13.50;50.70;;;;;;6190444;23;20202;-84
2022/02/18 20:15:56;;;;;;;3.53;1.90;;;13.50;50.70;;;;;;6145106;23;20176;-84
2022/02/18 20:18:53;;;;;;;5.72;1.95;;;13.60;51.90;;;;;;6137973;23;20172;-86
2022/02/18 20:21:20;;;;;;;4.57;1.90;;;13.60;51.60;;;;;;6197362;23;20198;-84
2022/02/18 20:23:48;;;;;;;6.07;1.77;;;13.70;51.80;;;;;;6204986;23;20181;-88
2022/02/18 20:26:50;;;;;;;5.18;1.73;;;13.60;50.10;;;;;;6188736;23;20198;-86
2022/02/18 20:29:20;;;;;;;3.35;1.67;;;13.60;50.10;;;;;;6208860;23;20189;-87
2022/02/18 20:31:59;;;;;;;4.53;1.73;;;13.60;50.70;;;;;;6210003;23;20229;-87
2022/02/18 20:34:33;;;;;;;4.88;1.40;;;13.60;53.60;;;;;;6212067;23;20150;-85
2022/02/18 20:37:36;;;;;;;2.80;1.48;;;13.50;50.20;;;;;;6209105;23;20206;-85
2022/02/18 20:40:05;;;;;;;8.77;4.13;;;13.50;50.00;;;;;;6205028;23;20217;-85
2022/02/18 20:42:49;;;;;;;2.72;1.58;;;13.40;52.30;;;;;;6202853;23;20230;-84
2022/02/18 20:45:18;;;;;;;2.40;1.67;;;13.30;52.70;;;;;;6203589;23;20209;-86
2022/02/18 20:47:45;;;;;;;3.03;1.65;;;13.20;54.10;;;;;;6177632;23;20206;-83
2022/02/18 20:53:08;;;;;;;3.55;1.30;;;12.10;63.00;;;;;;6201123;23;20297;-84
2022/02/18 20:55:36;;;;;;;1.35;1.10;;;11.10;74.40;;;;;;6203888;23;20167;-87